sensor_id;sensor_type;location;lat;lon;timestamp;pressure;altitude;pressure_sealevel;temperature;humidity
49835;BME280;35729;52.090;13.162;2023-04-30T00:00:39;101437.88;;;8.35;77.29
49835;BME280;35729;52.090;13.162;2023-04-30T00:03:08;101437.88;;;8.34;77.47
49835;BME280;35729;52.090;13.162;2023-04-30T00:05:39;101441.38;;;8.31;77.56
49835;BME280;35729;52.090;13.162;2023-04-30T00:08:07;101441.38;;;8.28;77.53
49835;BME280;35729;52.090;13.162;2023-04-30T00:10:36;101446.59;;;8.26;77.80
49835;BME280;35729;52.090;13.162;2023-04-30T00:13:04;101442.25;;;8.22;77.67
49835;BME280;35729;52.090;13.162;2023-04-30T00:15:39;101453.56;;;8.20;77.79
49835;BME280;35729;52.090;13.162;2023-04-30T00:18:08;101449.22;;;8.17;77.89
49835;BME280;35729;52.090;13.162;2023-04-30T00:20:39;101458.78;;;8.15;77.92
49835;BME280;35729;52.090;13.162;2023-04-30T00:23:07;101457.94;;;8.11;77.66
49835;BME280;35729;52.090;13.162;2023-04-30T00:25:35;101457.06;;;8.08;77.98
49835;BME280;35729;52.090;13.162;2023-04-30T00:28:04;101461.44;;;8.04;77.98
49835;BME280;35729;52.090;13.162;2023-04-30T00:30:32;101464.91;;;8.00;77.84
49835;BME280;35729;52.090;13.162;2023-04-30T00:33:01;101465.75;;;7.94;78.25
49835;BME280;35729;52.090;13.162;2023-04-30T00:35:30;101468.38;;;7.88;78.25
49835;BME280;35729;52.090;13.162;2023-04-30T00:38:01;101475.34;;;7.83;78.22
49835;BME280;35729;52.090;13.162;2023-04-30T00:40:36;101475.31;;;7.75;78.55
49835;BME280;35729;52.090;13.162;2023-04-30T00:43:05;101471.84;;;7.69;78.68
49835;BME280;35729;52.090;13.162;2023-04-30T00:45:34;101475.31;;;7.61;79.13
49835;BME280;35729;52.090;13.162;2023-04-30T00:48:03;101481.41;;;7.56;79.25
49835;BME280;35729;52.090;13.162;2023-04-30T00:50:34;101484.84;;;7.52;79.23
49835;BME280;35729;52.090;13.162;2023-04-30T00:53:06;101499.63;;;7.45;79.31
49835;BME280;35729;52.090;13.162;2023-04-30T00:55:34;101503.09;;;7.41;79.67
49835;BME280;35729;52.090;13.162;2023-04-30T00:58:03;101496.09;;;7.37;79.87
49835;BME280;35729;52.090;13.162;2023-04-30T01:00:33;101506.56;;;7.33;79.80
49835;BME280;35729;52.090;13.162;2023-04-30T01:03:01;101497.81;;;7.28;79.96
49835;BME280;35729;52.090;13.162;2023-04-30T01:05:30;101505.66;;;7.28;79.96
49835;BME280;35729;52.090;13.162;2023-04-30T01:07:58;101506.50;;;7.23;80.08
49835;BME280;35729;52.090;13.162;2023-04-30T01:10:34;101513.47;;;7.19;80.02
49835;BME280;35729;52.090;13.162;2023-04-30T01:13:10;101504.72;;;7.12;80.16
49835;BME280;35729;52.090;13.162;2023-04-30T01:15:44;101516.88;;;7.06;80.29
49835;BME280;35729;52.090;13.162;2023-04-30T01:18:18;101515.06;;;6.98;80.33
49835;BME280;35729;52.090;13.162;2023-04-30T01:20:53;101520.25;;;6.92;80.48
49835;BME280;35729;52.090;13.162;2023-04-30T01:23:31;101515.88;;;6.85;80.51
49835;BME280;35729;52.090;13.162;2023-04-30T01:26:12;101520.16;;;6.78;80.56
49835;BME280;35729;52.090;13.162;2023-04-30T01:28:45;101516.66;;;6.72;80.74
49835;BME280;35729;52.090;13.162;2023-04-30T01:31:17;101531.41;;;6.69;80.78
49835;BME280;35729;52.090;13.162;2023-04-30T01:33:46;101528.81;;;6.66;81.18
49835;BME280;35729;52.090;13.162;2023-04-30T01:36:36;101533.97;;;6.62;81.28
49835;BME280;35729;52.090;13.162;2023-04-30T01:39:13;101530.47;;;6.58;81.34
49835;BME280;35729;52.090;13.162;2023-04-30T01:41:51;101532.16;;;6.51;81.41
49835;BME280;35729;52.090;13.162;2023-04-30T01:44:40;101534.72;;;6.47;81.67
49835;BME280;35729;52.090;13.162;2023-04-30T01:47:19;101549.44;;;6.42;81.84
49835;BME280;35729;52.090;13.162;2023-04-30T01:49:57;101547.69;;;6.38;81.89
49835;BME280;35729;52.090;13.162;2023-04-30T01:52:35;101554.59;;;6.32;82.21
49835;BME280;35729;52.090;13.162;2023-04-30T01:55:11;101561.50;;;6.29;82.35
49835;BME280;35729;52.090;13.162;2023-04-30T01:57:44;101559.75;;;6.25;82.33
49835;BME280;35729;52.090;13.162;2023-04-30T02:00:18;101564.91;;;6.18;82.63
49835;BME280;35729;52.090;13.162;2023-04-30T02:02:46;101564.84;;;6.14;83.00
49835;BME280;35729;52.090;13.162;2023-04-30T02:05:15;101560.44;;;6.07;82.97
49835;BME280;35729;52.090;13.162;2023-04-30T02:07:46;101568.22;;;6.02;83.47
49835;BME280;35729;52.090;13.162;2023-04-30T02:10:17;101568.16;;;5.99;83.52
49835;BME280;35729;52.090;13.162;2023-04-30T02:12:45;101571.56;;;5.95;83.63
49835;BME280;35729;52.090;13.162;2023-04-30T02:15:14;101578.47;;;5.91;83.77
49835;BME280;35729;52.090;13.162;2023-04-30T02:17:45;101581.91;;;5.87;84.10
49835;BME280;35729;52.090;13.162;2023-04-30T02:20:14;101576.63;;;5.82;84.29
49835;BME280;35729;52.090;13.162;2023-04-30T02:22:43;101580.06;;;5.80;84.05
49835;BME280;35729;52.090;13.162;2023-04-30T02:25:11;101587.88;;;5.77;84.43
49835;BME280;35729;52.090;13.162;2023-04-30T02:27:39;101577.38;;;5.72;84.58
49835;BME280;35729;52.090;13.162;2023-04-30T02:30:08;101580.84;;;5.69;84.37
49835;BME280;35729;52.090;13.162;2023-04-30T02:32:36;101588.63;;;5.66;84.67
49835;BME280;35729;52.090;13.162;2023-04-30T02:35:08;101594.66;;;5.64;84.80
49835;BME280;35729;52.090;13.162;2023-04-30T02:37:36;101592.84;;;5.60;84.80
49835;BME280;35729;52.090;13.162;2023-04-30T02:40:07;101595.44;;;5.58;85.06
49835;BME280;35729;52.090;13.162;2023-04-30T02:42:35;101594.53;;;5.54;85.11
49835;BME280;35729;52.090;13.162;2023-04-30T02:45:05;101596.22;;;5.51;85.43
49835;BME280;35729;52.090;13.162;2023-04-30T02:47:33;101600.50;;;5.46;85.62
49835;BME280;35729;52.090;13.162;2023-04-30T02:50:02;101597.84;;;5.43;85.80
49835;BME280;35729;52.090;13.162;2023-04-30T02:52:33;101597.78;;;5.38;85.82
49835;BME280;35729;52.090;13.162;2023-04-30T02:55:01;101601.22;;;5.35;85.62
49835;BME280;35729;52.090;13.162;2023-04-30T02:57:30;101607.25;;;5.33;85.77
49835;BME280;35729;52.090;13.162;2023-04-30T02:59:58;101608.09;;;5.30;86.24
49835;BME280;35729;52.090;13.162;2023-04-30T03:02:27;101601.09;;;5.25;86.59
49835;BME280;35729;52.090;13.162;2023-04-30T03:04:55;101614.88;;;5.19;86.69
49835;BME280;35729;52.090;13.162;2023-04-30T03:07:24;101607.00;;;5.14;86.69
49835;BME280;35729;52.090;13.162;2023-04-30T03:09:55;101612.16;;;5.10;86.85
49835;BME280;35729;52.090;13.162;2023-04-30T03:12:23;101608.63;;;5.06;86.98
49835;BME280;35729;52.090;13.162;2023-04-30T03:14:52;101610.31;;;5.02;86.77
49835;BME280;35729;52.090;13.162;2023-04-30T03:17:20;101613.72;;;4.98;87.36
49835;BME280;35729;52.090;13.162;2023-04-30T03:19:49;101623.16;;;4.93;87.45
49835;BME280;35729;52.090;13.162;2023-04-30T03:22:17;101621.34;;;4.87;87.33
49835;BME280;35729;52.090;13.162;2023-04-30T03:24:48;101623.00;;;4.82;87.60
49835;BME280;35729;52.090;13.162;2023-04-30T03:27:19;101622.97;;;4.79;87.82
49835;BME280;35729;52.090;13.162;2023-04-30T03:29:47;101623.72;;;4.73;87.88
49835;BME280;35729;52.090;13.162;2023-04-30T03:32:16;101623.66;;;4.69;88.02
49835;BME280;35729;52.090;13.162;2023-04-30T03:34:44;101630.53;;;4.65;87.89
49835;BME280;35729;52.090;13.162;2023-04-30T03:37:13;101632.16;;;4.60;88.05
49835;BME280;35729;52.090;13.162;2023-04-30T03:39:41;101631.22;;;4.55;88.32
49835;BME280;35729;52.090;13.162;2023-04-30T03:42:10;101638.94;;;4.52;88.39
49835;BME280;35729;52.090;13.162;2023-04-30T03:44:41;101645.78;;;4.47;88.34
49835;BME280;35729;52.090;13.162;2023-04-30T03:47:09;101650.94;;;4.44;88.49
49835;BME280;35729;52.090;13.162;2023-04-30T03:49:38;101652.63;;;4.42;88.44
49835;BME280;35729;52.090;13.162;2023-04-30T03:52:06;101652.63;;;4.42;88.52
49835;BME280;35729;52.090;13.162;2023-04-30T03:54:35;101658.66;;;4.40;88.64
49835;BME280;35729;52.090;13.162;2023-04-30T03:57:04;101660.31;;;4.37;88.86
49835;BME280;35729;52.090;13.162;2023-04-30T03:59:35;101659.44;;;4.35;89.05
49835;BME280;35729;52.090;13.162;2023-04-30T04:02:06;101667.13;;;4.30;89.52
49835;BME280;35729;52.090;13.162;2023-04-30T04:04:34;101670.56;;;4.29;89.04
49835;BME280;35729;52.090;13.162;2023-04-30T04:07:03;101667.13;;;4.30;88.92
49835;BME280;35729;52.090;13.162;2023-04-30T04:09:32;101669.66;;;4.27;89.30
49835;BME280;35729;52.090;13.162;2023-04-30T04:12:00;101673.13;;;4.26;89.29
49835;BME280;35729;52.090;13.162;2023-04-30T04:14:41;101677.50;;;4.29;89.28
49835;BME280;35729;52.090;13.162;2023-04-30T04:17:12;101678.38;;;4.29;89.19
49835;BME280;35729;52.090;13.162;2023-04-30T04:19:41;101682.75;;;4.32;89.33
49835;BME280;35729;52.090;13.162;2023-04-30T04:22:09;101687.91;;;4.30;89.51
49835;BME280;35729;52.090;13.162;2023-04-30T04:24:38;101688.78;;;4.31;89.21
49835;BME280;35729;52.090;13.162;2023-04-30T04:27:06;101691.38;;;4.31;89.74
49835;BME280;35729;52.090;13.162;2023-04-30T04:29:35;101696.59;;;4.31;89.40
49835;BME280;35729;52.090;13.162;2023-04-30T04:32:03;101697.41;;;4.28;89.80
49835;BME280;35729;52.090;13.162;2023-04-30T04:34:34;101695.63;;;4.27;90.08
49835;BME280;35729;52.090;13.162;2023-04-30T04:37:03;101700.84;;;4.27;89.81
49835;BME280;35729;52.090;13.162;2023-04-30T04:39:31;101706.94;;;4.29;89.75
49835;BME280;35729;52.090;13.162;2023-04-30T04:42:01;101700.06;;;4.31;89.63
49835;BME280;35729;52.090;13.162;2023-04-30T04:44:29;101708.72;;;4.32;89.65
49835;BME280;35729;52.090;13.162;2023-04-30T04:46:58;101708.81;;;4.35;89.57
49835;BME280;35729;52.090;13.162;2023-04-30T04:49:28;101716.63;;;4.36;89.19
49835;BME280;35729;52.090;13.162;2023-04-30T04:51:59;101712.28;;;4.37;89.58
49835;BME280;35729;52.090;13.162;2023-04-30T04:54:29;101718.38;;;4.37;89.48
49835;BME280;35729;52.090;13.162;2023-04-30T04:56:58;101715.78;;;4.37;89.53
49835;BME280;35729;52.090;13.162;2023-04-30T04:59:27;101728.81;;;4.39;89.39
49835;BME280;35729;52.090;13.162;2023-04-30T05:01:56;101738.38;;;4.42;89.32
49835;BME280;35729;52.090;13.162;2023-04-30T05:04:24;101737.53;;;4.43;89.21
49835;BME280;35729;52.090;13.162;2023-04-30T05:06:53;101737.53;;;4.43;89.14
49835;BME280;35729;52.090;13.162;2023-04-30T05:09:24;101739.25;;;4.42;88.78
49835;BME280;35729;52.090;13.162;2023-04-30T05:11:52;101739.22;;;4.40;88.77
49835;BME280;35729;52.090;13.162;2023-04-30T05:14:21;101747.00;;;4.39;88.81
49835;BME280;35729;52.090;13.162;2023-04-30T05:16:49;101747.91;;;4.41;88.88
49835;BME280;35729;52.090;13.162;2023-04-30T05:19:18;101753.13;;;4.43;89.13
49835;BME280;35729;52.090;13.162;2023-04-30T05:21:46;101754.81;;;4.42;88.91
49835;BME280;35729;52.090;13.162;2023-04-30T05:24:15;101755.69;;;4.41;88.68
49835;BME280;35729;52.090;13.162;2023-04-30T05:26:47;101756.56;;;4.42;89.02
49835;BME280;35729;52.090;13.162;2023-04-30T05:29:15;101755.72;;;4.43;88.76
49835;BME280;35729;52.090;13.162;2023-04-30T05:31:44;101769.59;;;4.45;88.87
49835;BME280;35729;52.090;13.162;2023-04-30T05:34:12;101769.59;;;4.45;88.14
49835;BME280;35729;52.090;13.162;2023-04-30T05:36:41;101765.31;;;4.47;88.32
49835;BME280;35729;52.090;13.162;2023-04-30T05:39:10;101765.34;;;4.48;88.22
49835;BME280;35729;52.090;13.162;2023-04-30T05:41:38;101775.94;;;4.57;88.36
49835;BME280;35729;52.090;13.162;2023-04-30T05:44:09;101774.34;;;4.64;88.23
49835;BME280;35729;52.090;13.162;2023-04-30T05:46:38;101777.91;;;4.71;87.80
49835;BME280;35729;52.090;13.162;2023-04-30T05:49:06;101773.69;;;4.78;87.51
49835;BME280;35729;52.090;13.162;2023-04-30T05:51:35;101784.19;;;4.81;86.15
49835;BME280;35729;52.090;13.162;2023-04-30T05:54:04;101792.03;;;4.84;85.00
49835;BME280;35729;52.090;13.162;2023-04-30T05:56:32;101792.94;;;4.86;84.77
49835;BME280;35729;52.090;13.162;2023-04-30T05:59:01;101784.31;;;4.88;84.16
49835;BME280;35729;52.090;13.162;2023-04-30T06:01:32;101790.50;;;4.95;84.87
49835;BME280;35729;52.090;13.162;2023-04-30T06:04:00;101797.53;;;4.99;84.66
49835;BME280;35729;52.090;13.162;2023-04-30T06:06:29;101785.47;;;5.04;84.93
49835;BME280;35729;52.090;13.162;2023-04-30T06:08:58;101790.78;;;5.11;84.48
49835;BME280;35729;52.090;13.162;2023-04-30T06:11:26;101794.38;;;5.17;83.77
49835;BME280;35729;52.090;13.162;2023-04-30T06:13:55;101793.53;;;5.20;82.93
49835;BME280;35729;52.090;13.162;2023-04-30T06:16:24;101791.06;;;5.26;83.20
49835;BME280;35729;52.090;13.162;2023-04-30T06:18:55;101785.06;;;5.32;83.44
49835;BME280;35729;52.090;13.162;2023-04-30T06:21:24;101794.72;;;5.37;82.69
49835;BME280;35729;52.090;13.162;2023-04-30T06:24:07;101787.00;;;5.44;82.32
49835;BME280;35729;52.090;13.162;2023-04-30T06:26:42;101792.25;;;5.48;82.49
49835;BME280;35729;52.090;13.162;2023-04-30T06:29:10;101797.56;;;5.53;81.48
49835;BME280;35729;52.090;13.162;2023-04-30T06:31:39;101801.09;;;5.58;82.05
49835;BME280;35729;52.090;13.162;2023-04-30T06:34:07;101795.06;;;5.61;80.73
49835;BME280;35729;52.090;13.162;2023-04-30T06:36:36;101807.28;;;5.65;80.27
49835;BME280;35729;52.090;13.162;2023-04-30T06:39:07;101802.13;;;5.68;80.73
49835;BME280;35729;52.090;13.162;2023-04-30T06:41:35;101811.72;;;5.70;80.65
49835;BME280;35729;52.090;13.162;2023-04-30T06:44:04;101801.31;;;5.70;79.65
49835;BME280;35729;52.090;13.162;2023-04-30T06:46:32;101803.94;;;5.74;79.73
49835;BME280;35729;52.090;13.162;2023-04-30T06:49:01;101796.22;;;5.78;80.36
49835;BME280;35729;52.090;13.162;2023-04-30T06:51:30;101803.25;;;5.84;80.35
49835;BME280;35729;52.090;13.162;2023-04-30T06:53:58;101804.22;;;5.91;79.31
49835;BME280;35729;52.090;13.162;2023-04-30T06:56:29;101806.00;;;5.96;79.82
49835;BME280;35729;52.090;13.162;2023-04-30T06:58:58;101813.09;;;6.02;79.64
49835;BME280;35729;52.090;13.162;2023-04-30T07:01:26;101804.47;;;6.06;79.84
49835;BME280;35729;52.090;13.162;2023-04-30T07:03:54;101811.50;;;6.12;79.04
49835;BME280;35729;52.090;13.162;2023-04-30T07:06:23;101795.03;;;6.16;78.80
49835;BME280;35729;52.090;13.162;2023-04-30T07:08:52;101799.50;;;6.23;78.70
49835;BME280;35729;52.090;13.162;2023-04-30T07:11:20;101804.81;;;6.31;78.66
49835;BME280;35729;52.090;13.162;2023-04-30T07:13:51;101801.38;;;6.36;78.06
49835;BME280;35729;52.090;13.162;2023-04-30T07:16:20;101801.47;;;6.43;77.14
49835;BME280;35729;52.090;13.162;2023-04-30T07:18:48;101794.59;;;6.49;77.39
49835;BME280;35729;52.090;13.162;2023-04-30T07:21:17;101796.41;;;6.55;77.06
49835;BME280;35729;52.090;13.162;2023-04-30T07:23:46;101799.94;;;6.59;76.45
49835;BME280;35729;52.090;13.162;2023-04-30T07:26:16;101799.94;;;6.63;76.22
49835;BME280;35729;52.090;13.162;2023-04-30T07:28:45;101801.75;;;6.67;75.13
49835;BME280;35729;52.090;13.162;2023-04-30T07:31:17;101800.09;;;6.73;75.06
49835;BME280;35729;52.090;13.162;2023-04-30T07:33:45;101800.16;;;6.79;75.27
49835;BME280;35729;52.090;13.162;2023-04-30T07:36:15;101800.22;;;6.85;74.59
49835;BME280;35729;52.090;13.162;2023-04-30T07:38:43;101807.28;;;6.95;74.40
49835;BME280;35729;52.090;13.162;2023-04-30T07:41:12;101810.81;;;7.02;74.23
49835;BME280;35729;52.090;13.162;2023-04-30T07:43:41;101803.91;;;7.07;73.81
49835;BME280;35729;52.090;13.162;2023-04-30T07:46:09;101804.81;;;7.11;72.28
49835;BME280;35729;52.090;13.162;2023-04-30T07:48:40;101811.00;;;7.21;72.64
49835;BME280;35729;52.090;13.162;2023-04-30T07:51:09;101815.38;;;7.26;70.19
49835;BME280;35729;52.090;13.162;2023-04-30T07:53:37;101811.97;;;7.32;70.33
49835;BME280;35729;52.090;13.162;2023-04-30T07:56:06;101811.13;;;7.38;70.80
49835;BME280;35729;52.090;13.162;2023-04-30T07:58:34;101814.66;;;7.43;70.75
49835;BME280;35729;52.090;13.162;2023-04-30T08:01:03;101816.47;;;7.50;70.22
49835;BME280;35729;52.090;13.162;2023-04-30T08:03:31;101803.47;;;7.59;71.16
49835;BME280;35729;52.090;13.162;2023-04-30T08:06:04;101815.78;;;7.70;70.00
49835;BME280;35729;52.090;13.162;2023-04-30T08:08:33;101815.81;;;7.77;68.72
49835;BME280;35729;52.090;13.162;2023-04-30T08:11:01;101815.88;;;7.87;69.41
49835;BME280;35729;52.090;13.162;2023-04-30T08:13:30;101817.66;;;7.94;68.52
49835;BME280;35729;52.090;13.162;2023-04-30T08:15:58;101820.28;;;7.98;66.48
49835;BME280;35729;52.090;13.162;2023-04-30T08:18:27;101824.66;;;8.01;65.98
49835;BME280;35729;52.090;13.162;2023-04-30T08:20:56;101815.09;;;8.02;67.74
49835;BME280;35729;52.090;13.162;2023-04-30T08:23:27;101814.25;;;8.04;66.34
49835;BME280;35729;52.090;13.162;2023-04-30T08:25:56;101800.31;;;8.08;67.81
49835;BME280;35729;52.090;13.162;2023-04-30T08:28:25;101808.19;;;8.13;66.01
49835;BME280;35729;52.090;13.162;2023-04-30T08:30:53;101805.63;;;8.19;66.48
49835;BME280;35729;52.090;13.162;2023-04-30T08:33:22;101810.88;;;8.25;64.95
49835;BME280;35729;52.090;13.162;2023-04-30T08:35:50;101813.50;;;8.28;64.68
49835;BME280;35729;52.090;13.162;2023-04-30T08:38:19;101809.16;;;8.30;62.79
49835;BME280;35729;52.090;13.162;2023-04-30T08:40:56;101817.00;;;8.34;60.18
49835;BME280;35729;52.090;13.162;2023-04-30T08:43:29;101811.81;;;8.40;64.54
49835;BME280;35729;52.090;13.162;2023-04-30T08:45:57;101811.84;;;8.43;63.79
49835;BME280;35729;52.090;13.162;2023-04-30T08:48:27;101813.56;;;8.44;63.38
49835;BME280;35729;52.090;13.162;2023-04-30T08:50:59;101815.31;;;8.45;62.43
49835;BME280;35729;52.090;13.162;2023-04-30T08:53:28;101808.38;;;8.50;63.70
49835;BME280;35729;52.090;13.162;2023-04-30T08:56:00;101817.13;;;8.55;63.44
49835;BME280;35729;52.090;13.162;2023-04-30T08:58:29;101815.41;;;8.60;63.65
49835;BME280;35729;52.090;13.162;2023-04-30T09:00:58;101811.06;;;8.62;63.04
49835;BME280;35729;52.090;13.162;2023-04-30T09:03:26;101813.66;;;8.64;60.77
49835;BME280;35729;52.090;13.162;2023-04-30T09:05:55;101828.53;;;8.70;61.38
49835;BME280;35729;52.090;13.162;2023-04-30T09:08:42;101817.19;;;8.74;61.00
49835;BME280;35729;52.090;13.162;2023-04-30T09:11:28;101815.47;;;8.79;58.67
49835;BME280;35729;52.090;13.162;2023-04-30T09:13:58;101836.44;;;8.82;56.67
49835;BME280;35729;52.090;13.162;2023-04-30T09:16:28;101823.34;;;8.88;59.87
49835;BME280;35729;52.090;13.162;2023-04-30T09:18:57;101819.88;;;8.92;58.40
49835;BME280;35729;52.090;13.162;2023-04-30T09:21:33;101822.47;;;8.97;56.17
49835;BME280;35729;52.090;13.162;2023-04-30T09:24:04;101824.25;;;9.06;58.24
49835;BME280;35729;52.090;13.162;2023-04-30T09:26:36;101817.31;;;9.12;58.16
49835;BME280;35729;52.090;13.162;2023-04-30T09:29:05;101813.81;;;9.18;58.48
49835;BME280;35729;52.090;13.162;2023-04-30T09:31:36;101816.44;;;9.23;58.06
49835;BME280;35729;52.090;13.162;2023-04-30T09:34:05;101810.31;;;9.28;58.06
49835;BME280;35729;52.090;13.162;2023-04-30T09:36:33;101820.78;;;9.36;58.16
49835;BME280;35729;52.090;13.162;2023-04-30T09:39:06;101812.94;;;9.41;57.38
49835;BME280;35729;52.090;13.162;2023-04-30T09:41:38;101816.44;;;9.41;54.90
49835;BME280;35729;52.090;13.162;2023-04-30T09:44:07;101798.09;;;9.46;55.97
49835;BME280;35729;52.090;13.162;2023-04-30T09:46:35;101822.56;;;9.50;53.73
49835;BME280;35729;52.090;13.162;2023-04-30T09:49:05;101800.75;;;9.49;50.74
49835;BME280;35729;52.090;13.162;2023-04-30T09:51:33;101805.06;;;9.50;52.92
49835;BME280;35729;52.090;13.162;2023-04-30T09:54:02;101802.47;;;9.53;52.87
49835;BME280;35729;52.090;13.162;2023-04-30T09:56:39;101801.59;;;9.54;51.39
49835;BME280;35729;52.090;13.162;2023-04-30T09:59:08;101803.34;;;9.60;51.56
49835;BME280;35729;52.090;13.162;2023-04-30T10:01:40;101800.69;;;9.68;50.85
49835;BME280;35729;52.090;13.162;2023-04-30T10:04:08;101799.84;;;9.75;50.17
49835;BME280;35729;52.090;13.162;2023-04-30T10:06:37;101804.19;;;9.81;51.31
49835;BME280;35729;52.090;13.162;2023-04-30T10:09:08;101801.56;;;9.82;48.36
49835;BME280;35729;52.090;13.162;2023-04-30T10:11:41;101798.03;;;9.89;48.18
49835;BME280;35729;52.090;13.162;2023-04-30T10:14:11;101794.56;;;9.95;49.30
49835;BME280;35729;52.090;13.162;2023-04-30T10:16:44;101791.06;;;9.98;48.67
49835;BME280;35729;52.090;13.162;2023-04-30T10:19:18;101787.56;;;9.99;50.30
49835;BME280;35729;52.090;13.162;2023-04-30T10:21:48;101793.66;;;10.02;48.50
49835;BME280;35729;52.090;13.162;2023-04-30T10:24:18;101787.53;;;10.05;47.02
49835;BME280;35729;52.090;13.162;2023-04-30T10:26:50;101782.28;;;10.08;46.35
49835;BME280;35729;52.090;13.162;2023-04-30T10:29:18;101787.50;;;10.14;48.07
49835;BME280;35729;52.090;13.162;2023-04-30T10:31:48;101774.38;;;10.22;48.83
49835;BME280;35729;52.090;13.162;2023-04-30T10:34:24;101778.69;;;10.31;48.26
49835;BME280;35729;52.090;13.162;2023-04-30T10:36:58;101772.59;;;10.36;47.01
49835;BME280;35729;52.090;13.162;2023-04-30T10:39:28;101772.56;;;10.42;47.19
49835;BME280;35729;52.090;13.162;2023-04-30T10:42:04;101786.56;;;10.45;42.70
49835;BME280;35729;52.090;13.162;2023-04-30T10:44:34;101775.16;;;10.50;46.34
49835;BME280;35729;52.090;13.162;2023-04-30T10:47:04;101763.78;;;10.53;46.54
49835;BME280;35729;52.090;13.162;2023-04-30T10:49:33;101766.38;;;10.57;46.50
49835;BME280;35729;52.090;13.162;2023-04-30T10:52:03;101763.72;;;10.62;47.05
49835;BME280;35729;52.090;13.162;2023-04-30T10:54:33;101763.69;;;10.68;46.68
49835;BME280;35729;52.090;13.162;2023-04-30T10:57:12;101756.66;;;10.73;43.40
49835;BME280;35729;52.090;13.162;2023-04-30T10:59:43;101768.84;;;10.82;44.30
49835;BME280;35729;52.090;13.162;2023-04-30T11:02:15;101758.34;;;10.87;44.33
49835;BME280;35729;52.090;13.162;2023-04-30T11:05:08;101769.66;;;10.90;42.20
49835;BME280;35729;52.090;13.162;2023-04-30T11:07:36;101760.00;;;10.94;44.56
49835;BME280;35729;52.090;13.162;2023-04-30T11:10:06;101765.25;;;10.94;42.32
49835;BME280;35729;52.090;13.162;2023-04-30T11:12:39;101766.16;;;10.95;40.86
49835;BME280;35729;52.090;13.162;2023-04-30T11:15:12;101749.44;;;11.02;43.34
49835;BME280;35729;52.090;13.162;2023-04-30T11:17:42;101756.41;;;11.12;43.03
49835;BME280;35729;52.090;13.162;2023-04-30T11:20:12;101745.78;;;11.24;44.30
49835;BME280;35729;52.090;13.162;2023-04-30T11:22:43;101742.22;;;11.35;44.56
49835;BME280;35729;52.090;13.162;2023-04-30T11:25:14;101743.84;;;11.45;44.96
49835;BME280;35729;52.090;13.162;2023-04-30T11:27:49;101751.63;;;11.56;42.68
49835;BME280;35729;52.090;13.162;2023-04-30T11:30:18;101750.72;;;11.62;42.07
49835;BME280;35729;52.090;13.162;2023-04-30T11:32:48;101745.44;;;11.63;42.10
49835;BME280;35729;52.090;13.162;2023-04-30T11:35:17;101738.38;;;11.68;42.47
49835;BME280;35729;52.090;13.162;2023-04-30T11:37:47;101740.97;;;11.71;42.20
49835;BME280;35729;52.090;13.162;2023-04-30T11:40:16;101736.53;;;11.77;43.12
49835;BME280;35729;52.090;13.162;2023-04-30T11:42:46;101736.44;;;11.86;43.67
49835;BME280;35729;52.090;13.162;2023-04-30T11:45:17;101724.06;;;11.97;42.80
49835;BME280;35729;52.090;13.162;2023-04-30T11:47:49;101730.00;;;12.13;43.34
49835;BME280;35729;52.090;13.162;2023-04-30T11:50:19;101728.09;;;12.26;41.90
49835;BME280;35729;52.090;13.162;2023-04-30T11:52:54;101728.84;;;12.36;41.34
49835;BME280;35729;52.090;13.162;2023-04-30T11:55:24;101724.25;;;12.50;41.06
49835;BME280;35729;52.090;13.162;2023-04-30T11:57:55;101725.81;;;12.62;40.75
49835;BME280;35729;52.090;13.162;2023-04-30T12:00:29;101720.31;;;12.79;40.27
49835;BME280;35729;52.090;13.162;2023-04-30T12:03:04;101711.22;;;13.00;40.82
49835;BME280;35729;52.090;13.162;2023-04-30T12:05:40;101724.00;;;13.24;37.46
49835;BME280;35729;52.090;13.162;2023-04-30T12:08:09;101720.16;;;13.45;40.38
49835;BME280;35729;52.090;13.162;2023-04-30T12:10:38;101716.22;;;13.67;39.50
49835;BME280;35729;52.090;13.162;2023-04-30T12:13:06;101716.66;;;13.90;39.30
49835;BME280;35729;52.090;13.162;2023-04-30T12:15:37;101711.00;;;14.08;38.31
49835;BME280;35729;52.090;13.162;2023-04-30T12:18:10;101710.44;;;14.33;38.42
49835;BME280;35729;52.090;13.162;2023-04-30T12:20:40;101704.78;;;14.52;37.46
49835;BME280;35729;52.090;13.162;2023-04-30T12:23:09;101716.84;;;14.63;37.70
49835;BME280;35729;52.090;13.162;2023-04-30T12:25:41;101713.25;;;14.68;36.20
49835;BME280;35729;52.090;13.162;2023-04-30T12:28:10;101699.81;;;14.77;37.25
49835;BME280;35729;52.090;13.162;2023-04-30T12:30:41;101699.44;;;14.92;36.69
49835;BME280;35729;52.090;13.162;2023-04-30T12:33:11;101696.38;;;15.09;36.63
49835;BME280;35729;52.090;13.162;2023-04-30T12:35:41;101697.78;;;15.24;36.09
49835;BME280;35729;52.090;13.162;2023-04-30T12:38:12;101697.41;;;15.38;33.00
49835;BME280;35729;52.090;13.162;2023-04-30T12:40:46;101689.16;;;15.49;33.11
49835;BME280;35729;52.090;13.162;2023-04-30T12:43:16;101696.97;;;15.54;33.96
49835;BME280;35729;52.090;13.162;2023-04-30T12:45:48;101695.91;;;15.61;33.59
49835;BME280;35729;52.090;13.162;2023-04-30T12:48:20;101707.91;;;15.73;32.33
49835;BME280;35729;52.090;13.162;2023-04-30T12:50:53;101692.78;;;15.78;32.76
49835;BME280;35729;52.090;13.162;2023-04-30T12:53:22;101694.38;;;15.85;33.76
49835;BME280;35729;52.090;13.162;2023-04-30T12:56:07;101688.56;;;16.04;33.26
49835;BME280;35729;52.090;13.162;2023-04-30T12:58:36;101693.16;;;16.27;32.67
49835;BME280;35729;52.090;13.162;2023-04-30T13:01:10;101682.28;;;16.36;31.26
49835;BME280;35729;52.090;13.162;2023-04-30T13:03:39;101683.63;;;16.50;32.59